^^
Datos históricos de la estación: Murcia-Puente Tocinos
Diario Informe para Marzo 31, 2019 Unidades:  Métrico    Ingés   Ambas
Diario Semanal Mensual Anual
  Máxima: Mínima: Promedio:
Temperatura: 32.8 °C 22.4 °C 27.2 °C
Punto de rocio: 20.1 °C 16.8 °C 18.5 °C
Humedad: 81% 39.5% 61%
Velocidad viento: 15.6km/h 0km/h 6km/h
Racha viento: 28.2km/h - -
Viento- - SE
Presión: 1016.6 hPa 1011.5 hPa -
Precipitación: 0.0 mm    
 
 
Tabla de datos para Marzo 31, 2019
Hora Temperatura Punto de rocio Presión Viento Velocidad viento Racha viento Humedad Intensidad lluvia(por hora) Nubes
00:04 24.8 °C 19.9 °C 1016.6 hPa ENE 2.2 km/h 3.2 km/h 74% 0.0 mm
00:09 24.8 °C 19.8 °C 1016.6 hPa North 1.6 km/h 3.9 km/h 74% 0.0 mm
00:14 24.8 °C 19.9 °C 1016.6 hPa Calm   3.7 km/h 74.3% 0.0 mm
00:19 24.8 °C 20 °C 1016.6 hPa Calm   3.9 km/h 75% 0.0 mm
00:24 24.7 °C 20 °C 1016.6 hPa Calm   7.6 km/h 75% 0.0 mm
00:29 24.8 °C 20 °C 1016.6 hPa Oeste 0.8 km/h 8 km/h 75% 0.0 mm
00:34 24.8 °C 20.1 °C 1016.6 hPa Oeste 2.9 km/h 3.2 km/h 75% 0.0 mm
00:39 24.8 °C 20.1 °C 1016.6 hPa Oeste 2.1 km/h   75% 0.0 mm
00:44 24.8 °C 20.1 °C 1016.6 hPa Calm     75% 0.0 mm
00:49 24.8 °C 19.9 °C 1016.6 hPa Calm   5.6 km/h 74.3% 0.0 mm
00:54 24.7 °C 19.8 °C 1016.3 hPa Calm   8.4 km/h 74% 0.0 mm
00:59 24.7 °C 19.8 °C 1016.3 hPa Este 1.1 km/h 9.3 km/h 73.9% 0.0 mm
01:04 24.7 °C 19.7 °C 1016.3 hPa Este 3.2 km/h 9.7 km/h 74% 0.0 mm
01:09 24.6 °C 19.8 °C 1016.3 hPa ESE 2.9 km/h 5.6 km/h 74.8% 0.0 mm
01:14 24.6 °C 19.8 °C 1016.3 hPa SE 2.2 km/h 4.8 km/h 74.8% 0.0 mm
01:19 24.7 °C 19.9 °C 1016.3 hPa SE 1.6 km/h 3.2 km/h 75% 0.0 mm
01:24 24.7 °C 19.9 °C 1016.1 hPa Calm   2.3 km/h 75% 0.0 mm
01:29 24.7 °C 19.9 °C 1016.1 hPa Calm   3.7 km/h 75% 0.0 mm
01:34 24.6 °C 19.9 °C 1016.2 hPa Calm   3.2 km/h 75% 0.0 mm
01:39 24.6 °C 19.9 °C 1016.2 hPa Calm   3.9 km/h 75% 0.0 mm
01:44 24.5 °C 19.8 °C 1016.2 hPa Calm   3.2 km/h 75.2% 0.0 mm
01:49 24.4 °C 19.7 °C 1016.2 hPa Calm     75% 0.0 mm
01:54 24.4 °C 19.8 °C 1016.1 hPa Calm     75.7% 0.0 mm
01:59 24.3 °C 19.6 °C 1016.1 hPa Calm   4.7 km/h 75.2% 0.0 mm
02:04 24.3 °C 19.5 °C 1016.1 hPa Calm   7.4 km/h 74.4% 0.0 mm
02:09 24.3 °C 19.3 °C 1016.0 hPa SSE 1 km/h 8 km/h 74% 0.0 mm
02:14 24.2 °C 19.3 °C 1016.0 hPa SSE 3.2 km/h 8 km/h 74.1% 0.0 mm
02:19 24.2 °C 19.5 °C 1016.0 hPa SSE 3.2 km/h 8 km/h 75% 0.0 mm
02:24 24.2 °C 19.5 °C 1016.0 hPa SE 3.2 km/h 3.7 km/h 75% 0.0 mm
02:29 24.2 °C 19.5 °C 1016.0 hPa Este 2.2 km/h 4.7 km/h 75% 0.0 mm
02:34 24.2 °C 19.6 °C 1016.0 hPa Calm   4.8 km/h 75.4% 0.0 mm
02:39 24.1 °C 19.6 °C 1015.8 hPa Este 0.7 km/h 4.8 km/h 76% 0.0 mm
02:44 24 °C 19.5 °C 1015.8 hPa ESE 2.2 km/h 7.6 km/h 75.6% 0.0 mm
02:49 23.9 °C 19.4 °C 1015.8 hPa SSE 2.7 km/h 8 km/h 75.9% 0.0 mm
02:54 23.8 °C 19.4 °C 1015.8 hPa Sur 3.9 km/h 8 km/h 76% 0.0 mm
02:59 23.8 °C 19.5 °C 1015.8 hPa Sur 3.4 km/h 4.8 km/h 77% 0.0 mm
03:04 23.8 °C 19.5 °C 1015.8 hPa Sur 2.2 km/h 5.6 km/h 77% 0.0 mm
03:09 23.9 °C 19.6 °C 1015.6 hPa Sur 1.6 km/h 5.8 km/h 77% 0.0 mm
03:14 23.9 °C 19.4 °C 1015.6 hPa Calm   6.4 km/h 76% 0.0 mm
03:19 24.1 °C 19.6 °C 1015.6 hPa Sur 0.7 km/h 4.8 km/h 76% 0.0 mm
03:24 24.1 °C 19.6 °C 1015.3 hPa SSE 2.2 km/h 5.6 km/h 76% 0.0 mm
03:29 24.1 °C 19.6 °C 1015.3 hPa Sur 2.2 km/h 7.4 km/h 76% 0.0 mm
03:34 24.1 °C 19.6 °C 1015.3 hPa SO 2.2 km/h 8 km/h 76% 0.0 mm
03:39 24.1 °C 19.5 °C 1015.2 hPa SO 2.5 km/h 7.6 km/h 75.3% 0.0 mm
03:44 24.1 °C 19.4 °C 1015.2 hPa SSO 3.2 km/h 8 km/h 75% 0.0 mm
03:49 24.1 °C 19.4 °C 1015.2 hPa SO 3.2 km/h 8 km/h 75% 0.0 mm
03:54 24.1 °C 19.4 °C 1015.0 hPa SO 3.2 km/h 8 km/h 75% 0.0 mm
03:59 24.1 °C 19.4 °C 1015.0 hPa SO 3.2 km/h 8 km/h 75% 0.0 mm
04:04 24 °C 19.3 °C 1015.0 hPa SO 3.2 km/h 4.8 km/h 75% 0.0 mm
04:09 23.9 °C 19.2 °C 1014.9 hPa OSO 2.3 km/h 3.2 km/h 75% 0.0 mm
04:14 23.9 °C 19.2 °C 1014.9 hPa Calm   4.7 km/h 75% 0.0 mm
04:19 23.8 °C 19.1 °C 1014.9 hPa OSO 0.7 km/h 5.6 km/h 75% 0.0 mm
04:24 23.8 °C 19.2 °C 1014.7 hPa SO 2.2 km/h 5.8 km/h 75.2% 0.0 mm
04:29 23.8 °C 19.1 °C 1014.7 hPa SSO 2.2 km/h 6.4 km/h 75% 0.0 mm
04:34 23.8 °C 19.1 °C 1014.7 hPa SSO 2.2 km/h 6.4 km/h 75% 0.0 mm
04:39 23.8 °C 19.1 °C 1014.5 hPa SSO 1.6 km/h 3.2 km/h 75% 0.0 mm
04:44 23.8 °C 19.3 °C 1014.5 hPa Calm     75.8% 0.0 mm
04:49 23.7 °C 19.1 °C 1014.5 hPa Calm   5.8 km/h 75.1% 0.0 mm
04:54 23.7 °C 19 °C 1014.4 hPa Calm   6.4 km/h 75% 0.0 mm
04:59 23.7 °C 19 °C 1014.4 hPa Calm   4.8 km/h 75.1% 0.0 mm
05:04 23.7 °C 19.2 °C 1014.4 hPa Calm   7.4 km/h 76% 0.0 mm
05:09 23.5 °C 19.1 °C 1014.3 hPa Este 0.9 km/h 8 km/h 76.4% 0.0 mm
05:14 23.2 °C 19.1 °C 1014.3 hPa ESE 2.9 km/h 8 km/h 77.4% 0.0 mm
05:19 23 °C 19 °C 1014.3 hPa ESE 3.5 km/h 8.4 km/h 78.4% 0.0 mm
05:24 22.8 °C 19 °C 1014.1 hPa ESE 5 km/h 8 km/h 79% 0.0 mm
05:29 22.8 °C 19 °C 1014.1 hPa ESE 4.5 km/h 8 km/h 79.1% 0.0 mm
05:34 22.8 °C 19 °C 1014.1 hPa SE 3.2 km/h 8.4 km/h 79.2% 0.0 mm
05:39 22.8 °C 19.1 °C 1014.1 hPa SSE 3.7 km/h 8 km/h 79.7% 0.0 mm
05:44 22.8 °C 18.9 °C 1014.1 hPa Sur 4.7 km/h 8 km/h 79% 0.0 mm
05:49 22.8 °C 18.9 °C 1014.1 hPa Sur 4.7 km/h 8.4 km/h 79% 0.0 mm
05:54 22.8 °C 19 °C 1014.1 hPa Sur 4.7 km/h 8 km/h 79% 0.0 mm
05:59 22.8 °C 19 °C 1014.1 hPa SSE 4.8 km/h 8 km/h 79% 0.0 mm
06:04 22.9 °C 19 °C 1014.1 hPa SSE 5 km/h 8 km/h 79% 0.0 mm
06:09 22.9 °C 19 °C 1014.1 hPa SSE 4.2 km/h 5.8 km/h 78.5% 0.0 mm
06:14 22.9 °C 19.1 °C 1014.1 hPa NO 2.2 km/h 6.4 km/h 79% 0.0 mm
06:19 22.8 °C 19 °C 1014.2 hPa ONO 2.5 km/h 7.4 km/h 79.3% 0.0 mm
06:24 22.7 °C 19 °C 1014.2 hPa ONO 3.2 km/h 8 km/h 80% 0.0 mm
06:29 22.6 °C 19.1 °C 1014.2 hPa ONO 2.3 km/h 3.2 km/h 80.9% 0.0 mm
06:34 22.6 °C 19.1 °C 1014.2 hPa Calm     81% 0.0 mm
06:39 22.6 °C 19.2 °C 1014.2 hPa Calm     81% 0.0 mm
06:44 22.6 °C 19.2 °C 1014.2 hPa Calm     81% 0.0 mm
06:49 22.6 °C 19.2 °C 1014.2 hPa Calm     80.9% 0.0 mm
06:54 22.6 °C 19 °C 1014.2 hPa Calm   9.5 km/h 80.1% 0.0 mm
06:59 22.6 °C 19 °C 1014.2 hPa SSE 1.6 km/h 9.7 km/h 79.9% 0.0 mm
07:04 22.5 °C 18.7 °C 1014.3 hPa Sur 4.6 km/h 8 km/h 79% 0.0 mm
07:09 22.4 °C 18.6 °C 1014.3 hPa Sur 4.7 km/h 8 km/h 79% 0.0 mm
07:14 22.4 °C 18.7 °C 1014.3 hPa Sur 4.7 km/h 8 km/h 79.6% 0.0 mm
07:19 22.4 °C 18.8 °C 1014.3 hPa Sur 4.8 km/h 8.4 km/h 80% 0.0 mm
07:24 22.4 °C 18.8 °C 1014.3 hPa SSE 5 km/h 8 km/h 80% 0.0 mm
07:29 22.4 °C 18.6 °C 1014.3 hPa SSE 4.9 km/h 8 km/h 79.2% 0.0 mm
07:34 22.5 °C 18.7 °C 1014.4 hPa Sur 4.7 km/h 8 km/h 79% 0.0 mm
07:39 22.6 °C 18.6 °C 1014.4 hPa SO 4.7 km/h 8 km/h 78.1% 0.0 mm
07:44 22.6 °C 18.6 °C 1014.4 hPa OSO 5 km/h 8 km/h 78% 0.0 mm
07:49 22.7 °C 18.6 °C 1014.6 hPa Oeste 4.9 km/h 8 km/h 78% 0.0 mm
07:54 22.6 °C 18.5 °C 1014.6 hPa Oeste 4.7 km/h 11.1 km/h 77.4% 0.0 mm
07:59 22.5 °C 18.3 °C 1014.6 hPa OSO 5 km/h 11.3 km/h 77% 0.0 mm
08:04 22.5 °C 18.2 °C 1014.8 hPa OSO 5.8 km/h 10 km/h 77% 0.0 mm
08:09 22.5 °C 18.2 °C 1014.8 hPa OSO 5.5 km/h 9.7 km/h 77% 0.0 mm
08:14 22.6 °C 18.3 °C 1014.8 hPa OSO 5 km/h 8 km/h 76.9% 0.0 mm
08:19 22.6 °C 18.2 °C 1014.9 hPa OSO 4.5 km/h 8 km/h 76% 0.0 mm
08:24 22.7 °C 18.1 °C 1014.9 hPa SO 3.2 km/h 8 km/h 75.3% 0.0 mm
08:29 22.8 °C 18.2 °C 1014.9 hPa SO 3.1 km/h 8 km/h 75% 0.0 mm
08:34 23 °C 18.2 °C 1015.1 hPa SO 2.9 km/h 7.6 km/h 74.2% 0.0 mm
08:39 23.2 °C 18.1 °C 1015.1 hPa OSO 3 km/h 9.5 km/h 73.3% 0.0 mm
08:44 23.2 °C 18.1 °C 1015.1 hPa SO 3.2 km/h 11.9 km/h 73% 0.0 mm
08:49 23.2 °C 18.2 °C 1015.1 hPa SSO 4.4 km/h 15.6 km/h 73.6% 0.0 mm
08:54 23.1 °C 18.3 °C 1015.1 hPa SSO 7.6 km/h 16.1 km/h 74.3% 0.0 mm
08:59 23 °C 18.3 °C 1015.1 hPa SSO 8 km/h 14.5 km/h 74.9% 0.0 mm
09:04 23 °C 18.3 °C 1015.1 hPa SSO 8.7 km/h 14.5 km/h 74.8% 0.0 mm
09:09 23.1 °C 18.2 °C 1015.1 hPa SSO 8.4 km/h 11.9 km/h 74% 0.0 mm
09:14 23.2 °C 18.3 °C 1015.1 hPa SSO 7.6 km/h 11.3 km/h 73.8% 0.0 mm
09:19 23.4 °C 18.3 °C 1015.1 hPa SSO 7 km/h 11.3 km/h 73% 0.0 mm
09:24 23.6 °C 18.3 °C 1015.1 hPa SSO 5.8 km/h 11.1 km/h 72.3% 0.0 mm
09:29 23.7 °C 18.3 °C 1015.1 hPa SSO 5.8 km/h 11.3 km/h 71.7% 0.0 mm
09:34 23.9 °C 18.3 °C 1015.1 hPa SSO 5.8 km/h 11.3 km/h 71% 0.0 mm
09:39 24 °C 18.2 °C 1015.1 hPa SSO 6.3 km/h 11.9 km/h 70.4% 0.0 mm
09:44 24 °C 18.3 °C 1015.1 hPa SSO 7.6 km/h 13 km/h 70.4% 0.0 mm
09:49 24.1 °C 18.3 °C 1015.1 hPa SSO 7.6 km/h 12.9 km/h 70% 0.0 mm
09:54 24.2 °C 18.3 °C 1015.1 hPa SO 7.6 km/h 11.3 km/h 69.8% 0.0 mm
09:59 24.4 °C 18.3 °C 1015.1 hPa Sur 7 km/h 11.3 km/h 69% 0.0 mm
10:04 24.6 °C 18.2 °C 1015.2 hPa Sur 5.8 km/h 9.7 km/h 67.6% 0.0 mm
10:09 24.8 °C 18.1 °C 1015.2 hPa Sur 5.6 km/h 9.7 km/h 66.6% 0.0 mm
10:14 25 °C 17.8 °C 1015.2 hPa SO 5 km/h 9.7 km/h 64.4% 0.0 mm
10:19 25.2 °C 17.7 °C 1015.3 hPa Sur 5.2 km/h 11.1 km/h 63.1% 0.0 mm
10:24 25.5 °C 17.6 °C 1015.3 hPa SSE 5.8 km/h 11.3 km/h 61.8% 0.0 mm
10:29 25.8 °C 17.4 °C 1015.3 hPa Sur 5.8 km/h 11.1 km/h 59.9% 0.0 mm
10:34 26 °C 17.3 °C 1015.3 hPa SSO 5.8 km/h 11.3 km/h 58.7% 0.0 mm
10:39 26.2 °C 17 °C 1015.3 hPa Sur 6.1 km/h 13 km/h 56.9% 0.0 mm
10:44 26.3 °C 17 °C 1015.3 hPa SSO 6.9 km/h 12.9 km/h 56.5% 0.0 mm
10:49 26.6 °C 17.1 °C 1015.3 hPa SSE 6.6 km/h 11.3 km/h 56% 0.0 mm
10:54 26.8 °C 17 °C 1015.2 hPa Sur 5.8 km/h 10 km/h 55% 0.0 mm
10:59 27 °C 17.1 °C 1015.2 hPa Sur 5.8 km/h 10 km/h 54.5% 0.0 mm
11:04 27.1 °C 17 °C 1015.2 hPa SO 5.8 km/h 9.7 km/h 54% 0.0 mm
11:09 27.3 °C 17.1 °C 1015.1 hPa Sur 5.5 km/h 13 km/h 53.6% 0.0 mm
11:14 27.4 °C 17 °C 1015.1 hPa SSE 5 km/h 12.9 km/h 53% 0.0 mm
11:19 27.7 °C 17.1 °C 1015.1 hPa OSO 5.2 km/h 11.1 km/h 52.7% 0.0 mm
11:24 27.7 °C 17.3 °C 1015.1 hPa Sur 5.8 km/h 11.3 km/h 53% 0.0 mm
11:29 27.9 °C 17.2 °C 1015.1 hPa SSE 5.5 km/h 9.7 km/h 52.2% 0.0 mm
11:34 28.3 °C 17.4 °C 1015.2 hPa Sur 4.7 km/h 8 km/h 51.6% 0.0 mm
11:39 28.7 °C 17.2 °C 1015.2 hPa Oeste 4.1 km/h 9.5 km/h 50.1% 0.0 mm
11:44 28.8 °C 17.1 °C 1015.2 hPa Oeste 2.9 km/h 9.7 km/h 49.2% 0.0 mm
11:49 28.8 °C 17.1 °C 1015.2 hPa NO 3.2 km/h 9.7 km/h 49.4% 0.0 mm
11:54 29.1 °C 17.3 °C 1015.1 hPa ESE 3.9 km/h 8 km/h 49.1% 0.0 mm
11:59 29.3 °C 17.3 °C 1015.1 hPa Este 3.9 km/h 8 km/h 48.4% 0.0 mm
12:04 29.4 °C 17.3 °C 1015.1 hPa ENE 3.9 km/h 8 km/h 48.2% 0.0 mm
12:09 29.7 °C 17.5 °C 1015.1 hPa ENE 3.9 km/h 8.4 km/h 48.2% 0.0 mm
12:14 29.9 °C 17.7 °C 1015.1 hPa ENE 3.9 km/h 8.4 km/h 48% 0.0 mm
12:19 30.2 °C 17.8 °C 1015.1 hPa NNE 3.9 km/h 9.5 km/h 47.5% 0.0 mm
12:24 30.3 °C 17.6 °C 1015.0 hPa NNE 3.9 km/h 11.9 km/h 46.8% 0.0 mm
12:29 30.3 °C 17.5 °C 1015.0 hPa North 4.2 km/h 11.3 km/h 46.3% 0.0 mm
12:34 30.2 °C 17.3 °C 1015.0 hPa NNE 5 km/h 11.1 km/h 46.1% 0.0 mm
12:39 30.3 °C 17.4 °C 1014.9 hPa North 4.9 km/h 11.3 km/h 46% 0.0 mm
12:44 30.3 °C 17.4 °C 1014.9 hPa Este 4.7 km/h 10 km/h 46% 0.0 mm
12:49 30.4 °C 17.3 °C 1014.9 hPa Este 4.7 km/h 9.7 km/h 45.4% 0.0 mm
12:54 30.6 °C 17.4 °C 1014.9 hPa ENE 5 km/h 9.7 km/h 45.5% 0.0 mm
12:59 30.6 °C 17.1 °C 1014.9 hPa NNE 5.3 km/h 11.1 km/h 44.4% 0.0 mm
13:04 30.5 °C 17.2 °C 1014.9 hPa NE 5.8 km/h 13 km/h 44.9% 0.0 mm
13:09 30.6 °C 17 °C 1014.8 hPa NNE 5.8 km/h 13.7 km/h 44.3% 0.0 mm
13:14 30.7 °C 16.8 °C 1014.8 hPa ESE 5.8 km/h 14.5 km/h 43.5% 0.0 mm
13:19 30.8 °C 17.3 °C 1014.8 hPa Este 6.1 km/h 12.9 km/h 44.4% 0.0 mm
13:24 30.9 °C 17.2 °C 1014.6 hPa NNE 6.9 km/h 11.3 km/h 44% 0.0 mm
13:29 31 °C 17.6 °C 1014.6 hPa NE 7.1 km/h 14.8 km/h 44.7% 0.0 mm
13:34 31.2 °C 17.5 °C 1014.6 hPa ENE 7.6 km/h 14.5 km/h 44% 0.0 mm
13:39 31.2 °C 17.6 °C 1014.4 hPa ENE 7.6 km/h 14.8 km/h 44.3% 0.0 mm
13:44 31.1 °C 17.5 °C 1014.4 hPa NO 7.6 km/h 14.5 km/h 44.3% 0.0 mm
13:49 31.2 °C 17.5 °C 1014.4 hPa ENE 7.2 km/h 14.8 km/h 44.1% 0.0 mm
13:54 31.2 °C 17.5 °C 1014.2 hPa ENE 6.5 km/h 14.8 km/h 43.9% 0.0 mm
13:59 31.4 °C 17.4 °C 1014.2 hPa Este 6.8 km/h 14.5 km/h 43.2% 0.0 mm
14:04 31.5 °C 17.3 °C 1014.2 hPa NE 7.6 km/h 18.5 km/h 42.8% 0.0 mm
14:09 31.4 °C 17.3 °C 1014.1 hPa NE 8.3 km/h 19.3 km/h 42.9% 0.0 mm
14:14 31.6 °C 17.2 °C 1014.1 hPa NE 10 km/h 17.7 km/h 42.3% 0.0 mm
14:19 31.7 °C 17.1 °C 1014.1 hPa North 8.8 km/h 11.3 km/h 41.7% 0.0 mm
14:24 31.9 °C 17.6 °C 1013.9 hPa NE 5.8 km/h 13.7 km/h 42.4% 0.0 mm
14:29 32.1 °C 17.6 °C 1013.9 hPa NE 5.4 km/h 14.5 km/h 42.1% 0.0 mm
14:34 32.2 °C 17.6 °C 1013.9 hPa NE 4.7 km/h 11.3 km/h 41.7% 0.0 mm
14:39 32.3 °C 17.6 °C 1013.6 hPa NE 5 km/h 14 km/h 41.6% 0.0 mm
14:44 32.3 °C 17.9 °C 1013.6 hPa Este 5.8 km/h 15.6 km/h 42.3% 0.0 mm
14:49 32.3 °C 17.9 °C 1013.6 hPa ESE 7.1 km/h 19.8 km/h 42.4% 0.0 mm
14:54 32.3 °C 17.7 °C 1013.4 hPa ESE 10.3 km/h 22 km/h 41.9% 0.0 mm
14:59 32.1 °C 17.6 °C 1013.4 hPa Sur 10.6 km/h 22.5 km/h 42% 0.0 mm
15:04 32.2 °C 17.6 °C 1013.4 hPa ESE 11.1 km/h 24.5 km/h 41.8% 0.0 mm
15:09 32.2 °C 17.7 °C 1013.2 hPa ESE 11.3 km/h 24.1 km/h 42% 0.0 mm
15:14 32.3 °C 17.5 °C 1013.2 hPa SSE 11.9 km/h 22.5 km/h 41.1% 0.0 mm
15:19 32.5 °C 17.4 °C 1013.2 hPa SSE 11.7 km/h 20.4 km/h 40.8% 0.0 mm
15:24 32.6 °C 17.4 °C 1013.0 hPa ESE 11.1 km/h 24.1 km/h 40.4% 0.0 mm
15:29 32.6 °C 17.2 °C 1013.0 hPa SE 11.3 km/h 24.1 km/h 40% 0.0 mm
15:34 32.5 °C 17.2 °C 1013.0 hPa SE 11.9 km/h 20.9 km/h 40.1% 0.0 mm
15:39 32.7 °C 17.3 °C 1012.8 hPa SSE 10.8 km/h 18.5 km/h 40% 0.0 mm
15:44 32.6 °C 17.2 °C 1012.8 hPa ESE 8.4 km/h 24.1 km/h 39.9% 0.0 mm
15:49 32.6 °C 17.2 °C 1012.8 hPa ESE 9.4 km/h 27 km/h 39.9% 0.0 mm
15:54 32.6 °C 17 °C 1012.5 hPa SE 11.9 km/h 27.8 km/h 39.5% 0.0 mm
15:59 32.8 °C 17.6 °C 1012.5 hPa SE 12.5 km/h 27.4 km/h 40.5% 0.0 mm
16:04 32.8 °C 17.9 °C 1012.5 hPa SE 13.7 km/h 24.1 km/h 41.3% 0.0 mm
16:09 32.6 °C 17.6 °C 1012.3 hPa Este 14.2 km/h 24.1 km/h 41.1% 0.0 mm
16:14 32.6 °C 17.6 °C 1012.3 hPa Este 15.6 km/h 24.5 km/h 41% 0.0 mm
16:19 32.7 °C 18.1 °C 1012.3 hPa ESE 14.5 km/h 24.1 km/h 41.9% 0.0 mm
16:24 32.7 °C 17.9 °C 1012.0 hPa ESE 11.9 km/h 24.5 km/h 41.4% 0.0 mm
16:29 32.6 °C 18.5 °C 1012.0 hPa ESE 13 km/h 25.7 km/h 43.3% 0.0 mm
16:34 32.5 °C 18.3 °C 1012.1 hPa ESE 15.6 km/h 26.2 km/h 43.1% 0.0 mm
16:39 32.2 °C 18.2 °C 1012.1 hPa Este 15.6 km/h 25.7 km/h 43.5% 0.0 mm
16:44 32.2 °C 18.5 °C 1012.1 hPa ESE 15.6 km/h 24.1 km/h 44.2% 0.0 mm
16:49 32.3 °C 18.7 °C 1012.1 hPa SE 15 km/h 24.1 km/h 44.7% 0.0 mm
16:54 32.2 °C 18.8 °C 1011.9 hPa SE 13.7 km/h 24.1 km/h 45.1% 0.0 mm
16:59 31.9 °C 18.6 °C 1011.9 hPa SE 14 km/h 24.1 km/h 45.3% 0.0 mm
17:04 31.8 °C 18.5 °C 1012.0 hPa SE 14.8 km/h 24.1 km/h 45.3% 0.0 mm
17:09 31.8 °C 18.5 °C 1012.0 hPa SE 14.5 km/h 25.9 km/h 45.2% 0.0 mm
17:14 31.7 °C 18.6 °C 1012.0 hPa ESE 13.7 km/h 25.7 km/h 45.8% 0.0 mm
17:19 31.5 °C 18.8 °C 1012.0 hPa ESE 13.7 km/h 24.1 km/h 46.8% 0.0 mm
17:24 31.3 °C 18.7 °C 1011.9 hPa ESE 13.7 km/h 24.1 km/h 47% 0.0 mm
17:29 31.3 °C 18.6 °C 1011.9 hPa ESE 13.1 km/h 22.5 km/h 46.9% 0.0 mm
17:34 31.2 °C 18.6 °C 1011.9 hPa ESE 11.9 km/h 20.9 km/h 47% 0.0 mm
17:39 31.1 °C 18.6 °C 1011.7 hPa ESE 12.4 km/h 20.9 km/h 47.4% 0.0 mm
17:44 31.1 °C 18.8 °C 1011.7 hPa ESE 13.7 km/h 20.9 km/h 48% 0.0 mm
17:49 31.1 °C 18.7 °C 1011.7 hPa ESE 13.3 km/h 22.5 km/h 47.9% 0.0 mm
17:54 30.9 °C 18.6 °C 1011.5 hPa ESE 12.2 km/h 24.1 km/h 48% 0.0 mm
17:59 30.8 °C 18.7 °C 1011.5 hPa ESE 13.4 km/h 24.5 km/h 48.7% 0.0 mm
18:04 30.7 °C 18.8 °C 1011.5 hPa ESE 15.6 km/h 24.1 km/h 49% 0.0 mm
18:09 30.7 °C 18.7 °C 1011.5 hPa ESE 15.1 km/h 22.5 km/h 49% 0.0 mm
18:14 30.6 °C 18.6 °C 1011.5 hPa ESE 14 km/h 22.5 km/h 49% 0.0 mm
18:19 30.5 °C 18.6 °C 1011.6 hPa ESE 13.7 km/h 22.5 km/h 49% 0.0 mm
18:24 30.6 °C 18.6 °C 1011.6 hPa ESE 13 km/h 22.2 km/h 48.7% 0.0 mm
18:29 30.7 °C 18.5 °C 1011.6 hPa ESE 12.7 km/h 23.7 km/h 48% 0.0 mm
18:34 30.8 °C 18.4 °C 1011.7 hPa ESE 11.9 km/h 24.5 km/h 47.6% 0.0 mm
18:39 30.8 °C 18.2 °C 1011.7 hPa ESE 13 km/h 24.1 km/h 47% 0.0 mm
18:44 30.8 °C 18.2 °C 1011.7 hPa ESE 15.6 km/h 27.4 km/h 47.3% 0.0 mm
18:49 30.8 °C 18.2 °C 1011.7 hPa ESE 15.3 km/h 28.2 km/h 47% 0.0 mm
18:54 30.8 °C 18.1 °C 1011.7 hPa ESE 14.8 km/h 27.4 km/h 47% 0.0 mm
18:59 30.6 °C 18 °C 1011.7 hPa SE 14.2 km/h 22.5 km/h 47% 0.0 mm
19:04 30.6 °C 18 °C 1011.7 hPa SE 13 km/h 22.2 km/h 47% 0.0 mm
19:09 30.7 °C 17.9 °C 1011.7 hPa SE 13.2 km/h 24.1 km/h 46.2% 0.0 mm
19:14 30.7 °C 17.8 °C 1011.7 hPa ESE 13.7 km/h 24.1 km/h 46% 0.0 mm
19:19 30.7 °C 17.8 °C 1011.8 hPa ESE 13.1 km/h 20.9 km/h 46% 0.0 mm
19:24 30.7 °C 17.8 °C 1011.8 hPa ESE 11.9 km/h 19.3 km/h 46% 0.0 mm
19:29 30.8 °C 17.8 °C 1011.8 hPa ESE 10.8 km/h 13.7 km/h 46% 0.0 mm
19:34 30.7 °C 17.9 °C 1011.9 hPa ESE 8.4 km/h 16.7 km/h 46.4% 0.0 mm
19:39 30.6 °C 17.9 °C 1011.9 hPa ESE 8.4 km/h 16.1 km/h 46.8% 0.0 mm
19:44 30.5 °C 17.9 °C 1011.9 hPa ESE 8.4 km/h 17.2 km/h 47% 0.0 mm
19:49 30.4 °C 17.9 °C 1012.0 hPa SE 8.7 km/h 17.7 km/h 47% 0.0 mm
19:54 30.4 °C 18.2 °C 1012.0 hPa ESE 9.5 km/h 16.7 km/h 48.2% 0.0 mm
19:59 30.2 °C 18.7 °C 1012.0 hPa ESE 9.7 km/h 16.1 km/h 50% 0.0 mm
20:04 30.1 °C 18.9 °C 1012.1 hPa SE 10 km/h 14.8 km/h 51.4% 0.0 mm
20:09 29.9 °C 19 °C 1012.1 hPa SE 9.6 km/h 14.5 km/h 52% 0.0 mm
20:14 29.8 °C 18.9 °C 1012.1 hPa ESE 8.7 km/h 14.5 km/h 52.2% 0.0 mm
20:19 29.6 °C 19 °C 1012.2 hPa ESE 8.7 km/h 14.8 km/h 53% 0.0 mm
20:24 29.4 °C 19.1 °C 1012.2 hPa ESE 8.7 km/h 14.5 km/h 53.9% 0.0 mm
20:29 29.3 °C 19.1 °C 1012.2 hPa ESE 8.4 km/h 14.8 km/h 54% 0.0 mm
20:34 29.3 °C 19 °C 1012.3 hPa ESE 7.6 km/h 14.5 km/h 54% 0.0 mm
20:39 29.1 °C 19 °C 1012.3 hPa ESE 7.9 km/h 14.8 km/h 54.5% 0.0 mm
20:44 28.9 °C 19 °C 1012.3 hPa ESE 8.7 km/h 14.8 km/h 55% 0.0 mm
20:49 28.8 °C 18.9 °C 1012.3 hPa ESE 9.1 km/h 14.5 km/h 55.3% 0.0 mm
20:54 28.7 °C 19.1 °C 1012.3 hPa ESE 10 km/h 14.5 km/h 56% 0.0 mm
20:59 28.7 °C 19.1 °C 1012.3 hPa SE 8.8 km/h 10.3 km/h 56% 0.0 mm
21:04 28.7 °C 19 °C 1012.6 hPa ESE 6.5 km/h 9.7 km/h 56% 0.0 mm
21:09 28.6 °C 18.9 °C 1012.6 hPa SE 6.3 km/h 9.7 km/h 56% 0.0 mm
21:14 28.5 °C 18.9 °C 1012.6 hPa SE 5.8 km/h 9.7 km/h 56% 0.0 mm
21:19 28.4 °C 18.9 °C 1012.6 hPa ESE 6 km/h 11.1 km/h 56.4% 0.0 mm
21:24 28.3 °C 18.9 °C 1012.6 hPa ESE 6.5 km/h 11.9 km/h 57% 0.0 mm
21:29 28.2 °C 19 °C 1012.6 hPa ESE 7 km/h 11.9 km/h 57.6% 0.0 mm
21:34 28.1 °C 19 °C 1012.8 hPa ESE 8.4 km/h 11.3 km/h 58% 0.0 mm
21:39 28 °C 19.2 °C 1012.8 hPa ESE 7.9 km/h 11.3 km/h 58.9% 0.0 mm
21:44 27.9 °C 19.2 °C 1012.8 hPa ESE 6.9 km/h 13.7 km/h 59.2% 0.0 mm
21:49 27.8 °C 19.3 °C 1013.0 hPa ESE 7.1 km/h 14.5 km/h 60% 0.0 mm
21:54 27.7 °C 19.2 °C 1013.0 hPa ESE 7.6 km/h 11.3 km/h 60.1% 0.0 mm
21:59 27.6 °C 19.2 °C 1013.0 hPa SE 7.4 km/h 13 km/h 60.4% 0.0 mm
22:04 27.6 °C 19.1 °C 1013.0 hPa ESE 6.9 km/h 12.9 km/h 60% 0.0 mm
22:09 27.6 °C 19.1 °C 1013.0 hPa SE 6.8 km/h 9.7 km/h 60.1% 0.0 mm
22:14 27.6 °C 19.1 °C 1013.0 hPa SE 6.5 km/h 11.9 km/h 60.1% 0.0 mm
22:19 27.4 °C 19 °C 1013.1 hPa SE 6.5 km/h 11.3 km/h 60% 0.0 mm
22:24 27.4 °C 18.8 °C 1013.1 hPa ESE 6.5 km/h 11.3 km/h 59.3% 0.0 mm
22:29 27.3 °C 18.6 °C 1013.1 hPa ESE 5.9 km/h 9.7 km/h 59% 0.0 mm
22:34 27.3 °C 18.4 °C 1013.3 hPa ESE 4.7 km/h 8 km/h 58.2% 0.0 mm
22:39 27.3 °C 18.1 °C 1013.3 hPa ESE 4.1 km/h 7.4 km/h 57.2% 0.0 mm
22:44 27.3 °C 18.1 °C 1013.3 hPa ESE 2.9 km/h 8 km/h 57% 0.0 mm
22:49 27.3 °C 18 °C 1013.3 hPa Este 2.7 km/h 4.8 km/h 56.9% 0.0 mm
22:54 27.3 °C 17.6 °C 1013.3 hPa ESE 2.2 km/h 5.8 km/h 55.5% 0.0 mm
22:59 27.3 °C 17.5 °C 1013.3 hPa Este 2.5 km/h 6.4 km/h 55.4% 0.0 mm
23:04 27.3 °C 18.1 °C 1013.4 hPa Este 2.9 km/h 6.4 km/h 57.4% 0.0 mm
23:09 27.2 °C 18.1 °C 1013.4 hPa Este 2 km/h 4.8 km/h 57.4% 0.0 mm
23:14 27.1 °C 18 °C 1013.4 hPa Calm   5.8 km/h 57.6% 0.0 mm
23:19 27 °C 17.7 °C 1013.4 hPa Este 1 km/h 7.4 km/h 56.5% 0.0 mm
23:24 27 °C 17.7 °C 1013.4 hPa Este 3.2 km/h 8 km/h 56.6% 0.0 mm
23:29 27 °C 17.9 °C 1013.4 hPa Este 2.9 km/h 6.9 km/h 57.4% 0.0 mm
23:34 26.9 °C 18 °C 1013.5 hPa NNE 2.2 km/h 8 km/h 58.4% 0.0 mm
23:39 26.8 °C 18.2 °C 1013.5 hPa NNE 2.5 km/h 8 km/h 59.6% 0.0 mm
23:44 26.6 °C 18.2 °C 1013.5 hPa NE 3.2 km/h 8 km/h 60.1% 0.0 mm
23:49 26.5 °C 18.3 °C 1013.5 hPa NE 3.2 km/h 6.4 km/h 61% 0.0 mm
23:54 26.4 °C 18.5 °C 1013.3 hPa NE 3.2 km/h 7.4 km/h 61.9% 0.0 mm
23:59 26.3 °C 18.4 °C 1013.3 hPa NE 3.1 km/h 8 km/h 62% 0.0 mm
Murcia-Puente Tocinos, Espa?a
Compliments of Weather Underground - 3.25 mb

La estación de MeteoMurcia.com, publica sus datos en los siguientes proyectos:

Weather Underground PWS IMURCIAP2 Meteoclimatic www.awekas.at

Web Analytics

Clicky